createdAt,value
2022-08-07T00:02:36.031Z,24.61
2022-08-07T00:04:11.226Z,24.60
2022-08-07T00:06:51.562Z,24.62
2022-08-07T00:09:22.654Z,24.61
2022-08-07T00:11:55.959Z,24.61
2022-08-07T00:14:31.250Z,24.63
2022-08-07T00:17:02.559Z,24.61
2022-08-07T00:20:00.046Z,24.61
2022-08-07T00:22:24.559Z,24.61
2022-08-07T00:25:05.700Z,24.58
2022-08-07T00:27:52.643Z,24.59
2022-08-07T00:30:27.289Z,24.59
2022-08-07T00:32:57.592Z,24.60
2022-08-07T00:35:30.027Z,24.59
2022-08-07T00:37:59.646Z,24.60
2022-08-07T00:40:39.604Z,24.59
2022-08-07T00:43:59.683Z,24.59
2022-08-07T00:45:59.372Z,24.55
2022-08-07T00:48:32.039Z,24.52
2022-08-07T00:51:03.085Z,24.49
2022-08-07T00:53:38.912Z,24.48
2022-08-07T00:56:18.824Z,24.47
2022-08-07T00:58:49.753Z,24.47
2022-08-07T01:01:20.488Z,24.42
2022-08-07T01:03:56.440Z,24.41
2022-08-07T01:06:29.045Z,24.41
2022-08-07T01:09:01.095Z,24.41
2022-08-07T01:12:27.578Z,24.36
2022-08-07T01:14:21.493Z,24.34
2022-08-07T01:16:57.752Z,24.32
2022-08-07T01:19:27.959Z,24.30
2022-08-07T01:22:04.091Z,24.28
2022-08-07T01:24:38.189Z,24.27
2022-08-07T01:27:19.744Z,24.27
2022-08-07T01:29:50.772Z,24.25
2022-08-07T01:32:19.885Z,24.23
2022-08-07T01:34:52.097Z,24.20
2022-08-07T01:37:22.757Z,24.18
2022-08-07T01:39:51.668Z,24.14
2022-08-07T01:42:37.771Z,24.12
2022-08-07T01:45:17.752Z,24.06
2022-08-07T01:48:20.647Z,24.03
2022-08-07T01:50:37.961Z,24.00
2022-08-07T01:53:20.846Z,23.97
2022-08-07T01:55:56.584Z,23.93
2022-08-07T01:58:33.188Z,23.93
2022-08-07T02:01:25.346Z,23.89
2022-08-07T02:04:04.399Z,23.85
2022-08-07T02:06:35.658Z,23.85
2022-08-07T02:09:11.652Z,23.81
2022-08-07T02:12:17.806Z,23.79
2022-08-07T02:14:51.344Z,23.78
2022-08-07T02:17:27.484Z,23.78
2022-08-07T02:20:04.874Z,23.77
2022-08-07T02:22:41.412Z,23.76
2022-08-07T02:25:17.624Z,23.75
2022-08-07T02:27:52.122Z,23.76
2022-08-07T02:30:22.083Z,23.74
2022-08-07T02:33:00.679Z,23.74
2022-08-07T02:36:27.112Z,23.74
2022-08-07T02:38:32.685Z,23.74
2022-08-07T02:41:04.433Z,23.74
2022-08-07T02:43:34.590Z,23.74
2022-08-07T02:46:07.068Z,23.74
2022-08-07T02:48:35.701Z,23.74
2022-08-07T02:51:29.247Z,23.73
2022-08-07T02:54:01.336Z,23.72
2022-08-07T02:56:34.128Z,23.71
2022-08-07T02:59:05.872Z,23.70
2022-08-07T03:01:35.427Z,23.70
2022-08-07T03:04:07.826Z,23.70
2022-08-07T03:06:44.736Z,23.69
2022-08-07T03:09:43.329Z,23.67
2022-08-07T03:12:14.205Z,23.61
2022-08-07T03:14:52.968Z,23.61
2022-08-07T03:17:22.220Z,23.60
2022-08-07T03:19:54.724Z,23.59
2022-08-07T03:22:29.652Z,23.59
2022-08-07T03:25:00.842Z,23.60
2022-08-07T03:27:58.828Z,23.59
2022-08-07T03:30:20.689Z,23.57
2022-08-07T03:32:59.048Z,23.56
2022-08-07T03:35:43.757Z,23.58
2022-08-07T03:38:21.431Z,23.60
2022-08-07T03:41:00.480Z,23.61
2022-08-07T03:43:32.215Z,23.62
2022-08-07T03:46:03.616Z,23.63
2022-08-07T03:49:01.924Z,23.66
2022-08-07T03:51:30.733Z,23.67
2022-08-07T03:54:36.343Z,23.67
2022-08-07T03:57:07.118Z,23.66
2022-08-07T03:59:46.538Z,23.68
2022-08-07T04:02:27.369Z,23.69
2022-08-07T04:04:56.014Z,23.71
2022-08-07T04:07:26.031Z,23.73
2022-08-07T04:10:05.911Z,23.74
2022-08-07T04:12:44.336Z,23.76
2022-08-07T04:15:14.961Z,23.77
2022-08-07T04:18:31.812Z,23.81
2022-08-07T04:20:35.360Z,23.84
2022-08-07T04:23:06.133Z,23.85
2022-08-07T04:25:40.841Z,23.85
2022-08-07T04:28:13.540Z,23.86
2022-08-07T04:30:55.512Z,23.85
2022-08-07T04:33:26.818Z,23.87
2022-08-07T04:35:56.270Z,23.88
2022-08-07T04:38:27.861Z,23.88
2022-08-07T04:40:57.434Z,23.87
2022-08-07T04:44:09.888Z,23.87
2022-08-07T04:46:34.844Z,23.85
2022-08-07T04:49:18.378Z,23.85
2022-08-07T04:52:04.735Z,23.84
2022-08-07T04:54:41.047Z,23.86
2022-08-07T04:58:11.334Z,23.85
2022-08-07T05:00:30.161Z,23.87
2022-08-07T05:03:17.203Z,23.91
2022-08-07T05:06:19.709Z,23.96
2022-08-07T05:09:01.168Z,23.99
2022-08-07T05:11:58.774Z,23.99
2022-08-07T05:14:54.209Z,24.00
2022-08-07T05:18:00.368Z,24.02
2022-08-07T05:20:15.888Z,24.07
2022-08-07T05:22:48.853Z,24.10
2022-08-07T05:25:25.546Z,24.17
2022-08-07T05:28:20.519Z,24.20
2022-08-07T05:30:54.344Z,24.20
2022-08-07T05:33:24.882Z,24.21
2022-08-07T05:35:57.465Z,24.20
2022-08-07T05:39:00.839Z,24.22
2022-08-07T05:41:18.232Z,24.23
2022-08-07T05:44:08.787Z,24.24
2022-08-07T05:46:41.349Z,24.27
2022-08-07T05:49:14.351Z,24.28
2022-08-07T05:51:46.650Z,24.28
2022-08-07T05:54:44.264Z,24.30
2022-08-07T05:57:07.382Z,24.35
2022-08-07T05:59:55.803Z,24.38
2022-08-07T06:02:30.815Z,24.42
2022-08-07T06:05:04.408Z,24.50
2022-08-07T06:08:29.508Z,24.56
2022-08-07T06:10:24.599Z,24.63
2022-08-07T06:12:53.129Z,24.65
2022-08-07T06:15:39.015Z,24.69
2022-08-07T06:18:13.902Z,24.74
2022-08-07T06:20:50.699Z,24.83
2022-08-07T06:24:38.179Z,24.96
2022-08-07T06:26:27.247Z,25.11
2022-08-07T06:29:01.148Z,25.27
2022-08-07T06:31:46.974Z,25.40
2022-08-07T06:34:19.734Z,25.51
2022-08-07T06:36:52.061Z,25.61
2022-08-07T06:40:16.130Z,25.69
2022-08-07T06:42:19.282Z,25.82
2022-08-07T06:44:51.130Z,25.95
2022-08-07T06:47:21.128Z,26.06
2022-08-07T06:49:52.135Z,26.14
2022-08-07T06:52:35.525Z,26.25
2022-08-07T06:55:31.289Z,26.35
2022-08-07T06:58:02.280Z,26.47
2022-08-07T07:00:38.278Z,26.56
2022-08-07T07:03:08.633Z,26.67
2022-08-07T07:06:04.395Z,26.71
2022-08-07T07:08:33.269Z,26.72
2022-08-07T07:11:13.771Z,26.77
2022-08-07T07:14:01.417Z,26.80
2022-08-07T07:16:50.061Z,26.85
2022-08-07T07:19:57.223Z,26.94
2022-08-07T07:22:36.772Z,26.96
2022-08-07T07:26:33.145Z,27.04
2022-08-07T07:28:29.460Z,27.08
2022-08-07T07:31:07.921Z,27.13
2022-08-07T07:33:39.498Z,27.23
2022-08-07T07:36:12.752Z,27.25
2022-08-07T07:38:46.220Z,27.25
2022-08-07T07:41:19.330Z,27.26
2022-08-07T07:44:17.239Z,27.29
2022-08-07T07:46:55.348Z,27.34
2022-08-07T07:50:34.944Z,27.37
2022-08-07T07:52:22.046Z,27.39
2022-08-07T07:54:52.498Z,27.40
2022-08-07T07:57:51.560Z,27.42
2022-08-07T08:00:28.808Z,27.44
2022-08-07T08:03:06.162Z,27.54
2022-08-07T08:05:50.875Z,27.62
2022-08-07T08:08:35.112Z,27.71
2022-08-07T08:11:16.029Z,27.84
2022-08-07T08:13:52.910Z,27.98
2022-08-07T08:16:31.047Z,28.05
2022-08-07T08:19:09.873Z,28.11
2022-08-07T08:22:07.828Z,28.12
2022-08-07T08:25:09.504Z,28.18
2022-08-07T08:27:57.178Z,28.20
2022-08-07T08:30:34.844Z,28.28
2022-08-07T08:33:10.357Z,28.36
2022-08-07T08:35:50.740Z,28.50
2022-08-07T08:38:25.882Z,28.53
2022-08-07T08:41:06.431Z,28.55
2022-08-07T08:43:55.866Z,28.57
2022-08-07T08:46:38.520Z,28.61
2022-08-07T08:49:18.231Z,28.64
2022-08-07T08:52:13.694Z,28.68
2022-08-07T08:54:50.439Z,28.77
2022-08-07T08:57:36.096Z,28.78
2022-08-07T09:00:08.499Z,28.77
2022-08-07T09:02:52.410Z,28.77
2022-08-07T09:05:49.321Z,28.81
2022-08-07T09:08:34.242Z,28.91
2022-08-07T09:11:24.887Z,29.01
2022-08-07T09:14:13.550Z,29.13
2022-08-07T09:17:01.321Z,29.21
2022-08-07T09:19:55.207Z,29.35
2022-08-07T09:24:33.302Z,29.49
2022-08-07T09:25:54.246Z,29.62
2022-08-07T09:30:01.829Z,29.67
2022-08-07T09:31:33.711Z,29.69
2022-08-07T09:34:21.517Z,29.64
2022-08-07T09:37:01.695Z,29.53
2022-08-07T09:39:54.149Z,29.43
2022-08-07T09:42:41.853Z,29.44
2022-08-07T09:47:27.738Z,29.47
2022-08-07T09:48:30.144Z,29.46
2022-08-07T09:52:15.458Z,29.43
2022-08-07T09:54:27.179Z,29.43
2022-08-07T09:57:46.702Z,29.45
2022-08-07T10:00:18.783Z,29.61
2022-08-07T10:04:14.944Z,29.77
2022-08-07T10:07:52.880Z,30.09
2022-08-07T10:11:07.745Z,30.44
2022-08-07T10:13:55.588Z,30.75
2022-08-07T10:16:54.847Z,30.94
2022-08-07T10:19:50.145Z,31.15
2022-08-07T10:22:50.894Z,31.32
2022-08-07T10:25:42.832Z,31.54
2022-08-07T10:28:37.307Z,31.72
2022-08-07T10:31:38.973Z,31.77
2022-08-07T10:34:32.428Z,31.85
2022-08-07T10:37:22.332Z,31.89
2022-08-07T10:40:08.888Z,31.89
2022-08-07T10:42:44.014Z,31.91
2022-08-07T10:45:45.404Z,31.91
2022-08-07T10:48:36.173Z,31.99
2022-08-07T10:51:16.378Z,32.00
2022-08-07T10:53:51.896Z,32.05
2022-08-07T10:56:37.670Z,32.09
2022-08-07T10:59:22.193Z,32.22
2022-08-07T11:02:05.370Z,32.38
2022-08-07T11:05:10.592Z,32.46
2022-08-07T11:07:58.809Z,32.56
2022-08-07T11:10:40.513Z,32.63
2022-08-07T11:14:46.296Z,32.65
2022-08-07T11:16:11.284Z,32.60
2022-08-07T11:18:51.048Z,32.60
2022-08-07T11:21:32.980Z,32.62
2022-08-07T11:24:21.836Z,32.63
2022-08-07T11:27:01.205Z,32.64
2022-08-07T11:29:42.053Z,32.56
2022-08-07T11:32:25.348Z,32.50
2022-08-07T11:34:58.765Z,32.52
2022-08-07T11:38:09.964Z,32.47
2022-08-07T11:41:00.095Z,32.41
2022-08-07T11:43:54.981Z,32.40
2022-08-07T11:46:40.405Z,32.30
2022-08-07T11:50:32.321Z,32.18
2022-08-07T11:53:05.142Z,32.05
2022-08-07T11:56:13.983Z,31.98
2022-08-07T11:59:02.298Z,31.95
2022-08-07T12:01:58.662Z,31.94
2022-08-07T12:04:58.251Z,31.95
2022-08-07T12:07:39.098Z,32.02
2022-08-07T12:10:20.592Z,32.01
2022-08-07T12:13:01.819Z,32.01
2022-08-07T12:16:05.942Z,32.03
2022-08-07T12:18:45.461Z,32.00
2022-08-07T12:22:38.144Z,31.92
2022-08-07T12:24:37.663Z,31.92
2022-08-07T12:27:16.167Z,31.90
2022-08-07T12:29:55.086Z,31.92
2022-08-07T12:32:32.127Z,31.92
2022-08-07T12:35:08.275Z,31.92
2022-08-07T12:38:09.600Z,31.96
2022-08-07T12:40:50.048Z,31.92
2022-08-07T12:44:02.111Z,31.99
2022-08-07T12:46:32.400Z,32.02
2022-08-07T12:49:25.625Z,32.09
2022-08-07T12:52:14.681Z,32.19
2022-08-07T12:55:03.829Z,32.33
2022-08-07T12:57:38.938Z,32.51
2022-08-07T13:00:49.612Z,32.77
2022-08-07T13:04:00.508Z,33.40
2022-08-07T13:07:10.199Z,34.07
2022-08-07T13:10:38.104Z,34.70
2022-08-07T13:13:48.409Z,35.35
2022-08-07T13:16:30.762Z,35.66
2022-08-07T13:19:11.390Z,35.72
2022-08-07T13:22:00.609Z,35.76
2022-08-07T13:24:52.537Z,35.76
2022-08-07T13:28:05.930Z,36.00
2022-08-07T13:30:40.358Z,36.16
2022-08-07T13:34:30.740Z,36.16
2022-08-07T13:36:18.083Z,36.24
2022-08-07T13:38:56.953Z,36.47
2022-08-07T13:41:35.909Z,36.78
2022-08-07T13:44:12.882Z,37.18
2022-08-07T13:46:49.431Z,37.40
2022-08-07T13:50:34.239Z,37.58
2022-08-07T13:52:27.160Z,37.71
2022-08-07T13:55:13.191Z,37.87
2022-08-07T13:58:02.207Z,38.19
2022-08-07T14:00:54.321Z,38.45
2022-08-07T14:03:29.981Z,38.73
2022-08-07T14:06:17.710Z,39.22
2022-08-07T14:08:53.712Z,39.73
2022-08-07T14:11:27.970Z,40.09
2022-08-07T14:14:17.970Z,40.14
2022-08-07T14:16:49.848Z,39.94
2022-08-07T14:20:40.518Z,39.71
2022-08-07T14:22:34.141Z,39.53
2022-08-07T14:25:11.310Z,39.52
2022-08-07T14:30:40.740Z,39.88
2022-08-07T14:33:10.395Z,40.30
2022-08-07T14:35:47.509Z,40.93
2022-08-07T14:38:31.056Z,41.57
2022-08-07T14:41:03.840Z,42.29
2022-08-07T14:43:58.187Z,42.94
2022-08-07T14:46:32.049Z,43.34
2022-08-07T14:49:56.133Z,43.28
2022-08-07T14:52:03.368Z,42.90
2022-08-07T14:54:43.382Z,42.33
2022-08-07T14:57:19.477Z,42.12
2022-08-07T15:00:03.197Z,42.21
2022-08-07T15:05:26.988Z,42.01
2022-08-07T15:08:00.705Z,41.41
2022-08-07T15:10:31.987Z,40.68
2022-08-07T15:13:04.854Z,39.96
2022-08-07T15:15:40.724Z,39.29
2022-08-07T15:18:33.955Z,38.59
2022-08-07T15:21:43.936Z,37.87
2022-08-07T15:25:16.168Z,37.15
2022-08-07T15:27:04.952Z,36.40
2022-08-07T15:38:29.519Z,34.47
2022-08-07T15:41:24.235Z,34.20
2022-08-07T15:44:05.084Z,33.91
2022-08-07T15:46:47.388Z,33.72
2022-08-07T15:50:04.877Z,33.47
2022-08-07T15:52:17.168Z,33.22
2022-08-07T15:54:51.522Z,32.96
2022-08-07T15:57:39.267Z,32.73
2022-08-07T16:00:31.002Z,32.51
2022-08-07T16:03:05.808Z,32.36
2022-08-07T16:05:36.149Z,32.23
2022-08-07T16:08:33.055Z,32.10
2022-08-07T16:11:26.844Z,31.92
2022-08-07T16:14:09.057Z,31.74
2022-08-07T16:17:02.738Z,31.56
2022-08-07T16:20:03.933Z,31.43
2022-08-07T16:23:09.693Z,31.32
2022-08-07T16:25:56.606Z,31.20
2022-08-07T16:30:07.034Z,31.08
2022-08-07T16:31:50.950Z,31.02
2022-08-07T16:34:39.641Z,30.94
2022-08-07T16:38:06.070Z,30.87
2022-08-07T16:41:04.546Z,30.78
2022-08-07T16:44:46.191Z,30.73
2022-08-07T16:47:45.521Z,30.65
2022-08-07T16:51:21.012Z,30.55
2022-08-07T16:54:19.213Z,30.50
2022-08-07T16:57:03.231Z,30.43
2022-08-07T16:59:51.391Z,30.38
2022-08-07T17:02:53.432Z,30.30
2022-08-07T17:06:19.850Z,30.23
2022-08-07T17:09:10.861Z,30.20
2022-08-07T17:12:01.786Z,30.13
2022-08-07T17:14:49.572Z,30.04
2022-08-07T17:17:46.917Z,29.94
2022-08-07T17:20:30.886Z,29.90
2022-08-07T17:23:13.115Z,29.83
2022-08-07T17:25:57.266Z,29.71
2022-08-07T17:28:35.596Z,29.48
2022-08-07T17:31:15.618Z,29.09
2022-08-07T17:34:18.187Z,28.63
2022-08-07T17:36:57.660Z,28.15
2022-08-07T17:39:58.760Z,27.68
2022-08-07T17:42:59.066Z,27.34
2022-08-07T17:45:35.136Z,27.10
2022-08-07T17:48:12.757Z,26.89
2022-08-07T17:50:58.712Z,26.65
2022-08-07T17:54:01.272Z,26.48
2022-08-07T17:56:49.477Z,26.29
2022-08-07T17:59:26.674Z,26.17
2022-08-07T18:02:15.199Z,26.14
2022-08-07T18:04:55.168Z,26.16
2022-08-07T18:07:43.630Z,26.19
2022-08-07T18:10:28.635Z,26.26
2022-08-07T18:13:40.434Z,26.29
2022-08-07T18:16:30.792Z,26.34
2022-08-07T18:21:07.462Z,26.37
2022-08-07T18:22:14.964Z,26.45
2022-08-07T18:24:51.259Z,26.48
2022-08-07T18:27:38.562Z,26.46
2022-08-07T18:30:31.691Z,26.45
2022-08-07T18:34:05.018Z,26.33
2022-08-07T18:37:14.622Z,26.28
2022-08-07T18:40:42.592Z,26.25
2022-08-07T18:43:14.913Z,26.24
2022-08-07T18:46:21.810Z,26.25
2022-08-07T18:50:05.829Z,26.28
2022-08-07T18:52:33.922Z,26.35
2022-08-07T18:54:50.949Z,26.40
2022-08-07T18:57:40.681Z,26.48
2022-08-07T19:00:34.593Z,26.53
2022-08-07T19:03:15.796Z,26.57
2022-08-07T19:06:03.497Z,26.61
2022-08-07T19:08:58.846Z,26.61
2022-08-07T19:12:04.651Z,26.60
2022-08-07T19:15:00.553Z,26.60
2022-08-07T19:18:01.034Z,26.63
2022-08-07T19:21:09.697Z,26.63
2022-08-07T19:23:59.290Z,26.67
2022-08-07T19:26:55.563Z,26.68
2022-08-07T19:31:05.415Z,26.69
2022-08-07T19:32:26.031Z,26.70
2022-08-07T19:35:03.461Z,26.67
2022-08-07T19:37:56.562Z,26.68
2022-08-07T19:40:30.769Z,26.65
2022-08-07T19:43:00.978Z,26.61
2022-08-07T19:46:04.978Z,26.60
2022-08-07T19:48:42.605Z,26.57
2022-08-07T19:51:20.172Z,26.57
2022-08-07T19:54:30.988Z,26.57
2022-08-07T19:58:00.784Z,26.57
2022-08-07T19:59:44.093Z,26.57
2022-08-07T20:02:19.955Z,26.59
2022-08-07T20:04:51.968Z,26.62
2022-08-07T20:07:47.839Z,26.63
2022-08-07T20:10:38.365Z,26.62
2022-08-07T20:13:27.044Z,26.62
2022-08-07T20:16:03.973Z,26.62
2022-08-07T20:18:35.828Z,26.63
2022-08-07T20:21:20.966Z,26.62
2022-08-07T20:23:57.798Z,26.59
2022-08-07T20:26:44.858Z,26.58
2022-08-07T20:29:47.901Z,26.56
2022-08-07T20:32:11.593Z,26.53
2022-08-07T20:34:55.967Z,26.52
2022-08-07T20:37:34.155Z,26.50
2022-08-07T20:40:32.951Z,26.51
2022-08-07T20:43:09.474Z,26.48
2022-08-07T20:46:26.439Z,26.45
2022-08-07T20:48:37.418Z,26.43
2022-08-07T20:51:09.622Z,26.42
2022-08-07T20:54:03.458Z,26.41
2022-08-07T20:56:34.968Z,26.39
2022-08-07T21:00:05.565Z,26.38
2022-08-07T21:01:58.380Z,26.36
2022-08-07T21:04:31.733Z,26.34
2022-08-07T21:07:03.928Z,26.33
2022-08-07T21:09:52.453Z,26.31
2022-08-07T21:12:31.569Z,26.27
2022-08-07T21:15:08.029Z,26.24
2022-08-07T21:18:28.104Z,26.22
2022-08-07T21:20:30.389Z,26.16
2022-08-07T21:23:08.929Z,26.11
2022-08-07T21:26:01.382Z,26.07
2022-08-07T21:28:48.362Z,26.05
2022-08-07T21:31:31.423Z,26.04
2022-08-07T21:34:32.334Z,26.01
2022-08-07T21:37:08.826Z,26.01
2022-08-07T21:39:51.489Z,25.98
2022-08-07T21:42:42.391Z,25.97
2022-08-07T21:46:09.179Z,25.95
2022-08-07T21:48:34.411Z,25.94
2022-08-07T21:51:19.409Z,25.94
2022-08-07T21:53:54.165Z,25.94
2022-08-07T21:56:40.195Z,25.91
2022-08-07T21:59:36.311Z,25.89
2022-08-07T22:02:31.061Z,25.90
2022-08-07T22:05:04.667Z,25.90
2022-08-07T22:07:59.452Z,25.88
2022-08-07T22:10:32.828Z,25.89
2022-08-07T22:13:09.169Z,25.89
2022-08-07T22:16:43.355Z,25.90
2022-08-07T22:18:44.245Z,25.94
2022-08-07T22:21:20.633Z,25.94
2022-08-07T22:23:58.122Z,25.95
2022-08-07T22:26:44.242Z,25.97
2022-08-07T22:29:38.025Z,25.97
2022-08-07T22:32:25.457Z,25.98
2022-08-07T22:34:57.341Z,25.98
2022-08-07T22:38:03.888Z,25.97
2022-08-07T22:40:42.196Z,25.98
2022-08-07T22:43:13.589Z,25.99
2022-08-07T22:46:42.727Z,25.97
2022-08-07T22:49:19.111Z,25.96
2022-08-07T22:52:06.947Z,25.96
2022-08-07T22:55:17.320Z,25.94
2022-08-07T22:58:34.301Z,25.90
2022-08-07T23:01:49.696Z,25.89
2022-08-07T23:06:10.235Z,25.88
2022-08-07T23:07:59.405Z,25.87
2022-08-07T23:10:43.235Z,25.86
2022-08-07T23:13:48.860Z,25.83
2022-08-07T23:16:55.896Z,25.81
2022-08-07T23:19:57.761Z,25.82
2022-08-07T23:22:45.444Z,25.77
2022-08-07T23:25:29.585Z,25.75
2022-08-07T23:28:37.688Z,25.69
2022-08-07T23:32:49.188Z,25.66
2022-08-07T23:34:52.860Z,25.61
2022-08-07T23:38:19.402Z,25.56
2022-08-07T23:41:32.992Z,25.53
2022-08-07T23:44:35.106Z,25.48
2022-08-07T23:47:47.805Z,25.45
2022-08-07T23:50:37.342Z,25.43
2022-08-07T23:53:49.724Z,25.42
2022-08-07T23:56:27.621Z,25.43
2022-08-07T23:59:10.819Z,25.42
